Time;durP1;ratioP1;P1;durP2;ratioP2;P2;SDS_P1;SDS_P2;PMS_P1;PMS_P2;Temp;Humidity;BMP_temperature;BMP_pressure;BME280_temperature;BME280_humidity;BME280_pressure;Samples;Min_cycle;Max_cycle;Signal;HPM_P1;HPM_P2
2022/11/25 00:01:22;;;;;;;22.25;3.78;;;8.80;99.90;;;;;;4987277;28;20501;-65
2022/11/25 00:03:49;;;;;;;20.80;4.03;;;8.80;99.90;;;;;;4988184;28;20137;-65
2022/11/25 00:06:23;;;;;;;27.83;3.53;;;8.80;99.90;;;;;;4992552;28;20054;-64
2022/11/25 00:08:51;;;;;;;;;;;8.80;99.90;;;;;;4993050;28;20046;-65
2022/11/25 00:11:17;;;;;;;33.08;5.72;;;8.70;99.90;;;;;;4990441;28;19922;-64
2022/11/25 00:13:44;;;;;;;22.40;2.88;;;8.80;99.90;;;;;;4972385;28;20421;-64
2022/11/25 00:16:16;;;;;;;28.98;4.13;;;8.80;99.90;;;;;;4989447;28;20069;-65
2022/11/25 00:18:44;;;;;;;24.88;4.22;;;8.80;99.90;;;;;;4988333;28;20054;-65
2022/11/25 00:21:13;;;;;;;22.98;4.50;;;8.80;99.90;;;;;;4989536;28;20046;-64
2022/11/25 00:23:40;;;;;;;19.90;3.78;;;8.80;99.90;;;;;;4988262;28;20421;-63
2022/11/25 00:26:14;;;;;;;25.63;3.45;;;8.80;99.90;;;;;;4988641;28;20058;-64
2022/11/25 00:28:43;;;;;;;38.50;4.38;;;8.80;99.90;;;;;;4988411;28;20292;-64
2022/11/25 00:31:21;;;;;;;26.65;4.63;;;8.80;99.90;;;;;;4987892;28;20053;-64
2022/11/25 00:33:48;;;;;;;30.27;6.35;;;8.80;99.90;;;;;;4988002;28;20054;-63
2022/11/25 00:36:16;;;;;;;16.13;3.28;;;8.90;99.90;;;;;;4989265;28;20046;-64
2022/11/25 00:38:43;;;;;;;19.95;3.42;;;8.90;99.90;;;;;;4980775;28;20059;-63
2022/11/25 00:46:41;;;;;;;25.73;3.58;;;8.90;99.90;;;;;;4989281;28;20050;-63
2022/11/25 00:49:07;;;;;;;32.08;3.97;;;8.90;99.90;;;;;;4989333;28;20054;-64
2022/11/25 00:51:34;;;;;;;22.38;3.58;;;8.90;99.90;;;;;;4988916;28;20054;-63
2022/11/25 00:54:01;;;;;;;20.00;3.38;;;8.90;99.90;;;;;;4989434;28;20260;-63
2022/11/25 00:56:29;;;;;;;13.73;3.17;;;8.90;99.90;;;;;;4988043;28;20050;-63
2022/11/25 00:58:56;;;;;;;25.35;6.30;;;9.00;99.90;;;;;;4989462;28;20105;-64
2022/11/25 01:01:23;;;;;;;33.80;4.45;;;9.00;99.90;;;;;;4988833;28;20042;-63
2022/11/25 01:03:50;;;;;;;29.92;5.80;;;9.00;99.90;;;;;;4988933;28;20501;-65
2022/11/25 01:06:17;;;;;;;29.55;5.05;;;9.00;99.90;;;;;;4987462;28;20416;-65
2022/11/25 01:08:44;;;;;;;28.05;4.60;;;9.00;99.90;;;;;;4971994;28;20504;-64
2022/11/25 01:11:14;;;;;;;28.77;3.63;;;9.00;99.90;;;;;;4645696;28;10000032;-64
2022/11/25 01:13:41;;;;;;;30.95;4.47;;;9.00;99.90;;;;;;4984512;28;20528;-64
2022/11/25 01:16:09;;;;;;;22.10;4.50;;;8.90;99.90;;;;;;4988637;28;20091;-63
2022/11/25 01:18:36;;;;;;;27.63;4.07;;;9.00;99.90;;;;;;4988957;28;20429;-63
2022/11/25 01:21:12;;;;;;;24.80;3.35;;;9.00;99.90;;;;;;4987637;28;20078;-63
2022/11/25 01:23:40;;;;;;;17.90;5.22;;;9.00;99.90;;;;;;4989074;28;20375;-64
2022/11/25 01:26:15;;;;;;;25.35;4.40;;;9.00;99.90;;;;;;4987559;28;20524;-63
2022/11/25 01:28:42;;;;;;;21.98;3.38;;;9.00;99.90;;;;;;4985777;28;20050;-64
2022/11/25 01:31:11;;;;;;;24.17;3.55;;;9.00;99.90;;;;;;4971610;28;20046;-63
2022/11/25 01:33:37;;;;;;;17.88;3.95;;;9.00;99.90;;;;;;4971183;28;20082;-64
2022/11/25 01:36:06;;;;;;;19.20;4.40;;;9.00;99.90;;;;;;4987887;28;20054;-64
2022/11/25 01:38:33;;;;;;;37.00;6.20;;;9.00;99.90;;;;;;4989192;28;20065;-65
2022/11/25 01:41:00;;;;;;;31.23;4.28;;;9.00;99.90;;;;;;4991011;28;20065;-64
2022/11/25 01:43:27;;;;;;;25.50;3.67;;;9.00;99.90;;;;;;4979081;28;20078;-63
2022/11/25 01:45:56;;;;;;;24.83;5.10;;;9.00;99.90;;;;;;4991041;28;20054;-65
2022/11/25 01:48:42;;;;;;;25.75;4.30;;;9.00;99.90;;;;;;4992311;28;20391;-64
2022/11/25 01:51:23;;;;;;;24.58;4.90;;;8.90;99.90;;;;;;4976728;28;20053;-64
2022/11/25 01:53:50;;;;;;;27.13;3.28;;;8.90;99.90;;;;;;4992114;28;20056;-64
2022/11/25 01:56:17;;;;;;;21.38;3.75;;;8.90;99.90;;;;;;4991265;28;20085;-64
2022/11/25 01:58:44;;;;;;;26.05;3.88;;;8.90;99.90;;;;;;4975083;28;20072;-64
2022/11/25 02:01:11;;;;;;;19.95;3.53;;;8.90;99.90;;;;;;4990751;28;20230;-65
2022/11/25 02:03:43;;;;;;;27.92;4.50;;;8.90;99.90;;;;;;4990582;28;20050;-65
2022/11/25 02:06:15;;;;;;;23.77;4.18;;;8.80;99.90;;;;;;4990842;28;20058;-65
2022/11/25 02:08:44;;;;;;;21.05;3.47;;;8.80;99.90;;;;;;4991198;28;20410;-64
2022/11/25 02:11:10;;;;;;;20.83;3.55;;;8.90;99.90;;;;;;4991053;28;20052;-65
2022/11/25 02:13:37;;;;;;;25.20;4.43;;;8.90;99.90;;;;;;4991744;28;20057;-64
2022/11/25 02:16:04;;;;;;;21.52;3.15;;;8.80;99.90;;;;;;4991984;28;20395;-65
2022/11/25 02:18:31;;;;;;;24.83;4.13;;;8.80;99.90;;;;;;4990383;28;20078;-64
2022/11/25 02:20:58;;;;;;;26.05;4.47;;;8.80;99.90;;;;;;4991221;28;20052;-65
2022/11/25 02:23:54;;;;;;;18.20;3.13;;;8.80;99.90;;;;;;4990500;28;20046;-64
2022/11/25 02:26:21;;;;;;;27.63;3.20;;;8.70;99.90;;;;;;4984238;28;20187;-65
2022/11/25 02:28:48;;;;;;;32.25;3.40;;;8.70;99.90;;;;;;4990436;28;20039;-65
2022/11/25 02:31:21;;;;;;;21.20;3.25;;;8.70;99.90;;;;;;4991981;28;20050;-64
2022/11/25 02:33:48;;;;;;;28.23;4.90;;;8.70;99.90;;;;;;4990207;28;20061;-64
2022/11/25 02:36:19;;;;;;;32.45;3.45;;;8.70;99.90;;;;;;4990555;28;20284;-65
2022/11/25 02:38:47;;;;;;;24.02;5.68;;;8.70;99.90;;;;;;4990198;28;20065;-65
2022/11/25 02:41:19;;;;;;;29.27;3.95;;;8.70;99.90;;;;;;4990475;28;20054;-65
2022/11/25 02:43:46;;;;;;;21.60;3.83;;;8.70;99.90;;;;;;4989826;28;20073;-64
2022/11/25 02:46:17;;;;;;;30.55;3.97;;;8.70;99.90;;;;;;4987955;28;20506;-64
2022/11/25 02:48:48;;;;;;;30.02;4.20;;;8.60;99.90;;;;;;4991018;28;20050;-64
2022/11/25 02:51:35;;;;;;;17.77;4.05;;;8.70;99.90;;;;;;4988500;28;20054;-65
2022/11/25 02:54:02;;;;;;;16.48;4.43;;;8.60;99.90;;;;;;4990486;28;20058;-65
2022/11/25 02:56:30;;;;;;;19.08;3.13;;;8.70;99.90;;;;;;4991221;28;20153;-64
2022/11/25 02:58:57;;;;;;;23.63;3.45;;;8.70;99.90;;;;;;4991208;28;20140;-64
2022/11/25 03:01:24;;;;;;;24.08;3.10;;;8.80;99.90;;;;;;4977717;28;20080;-65
2022/11/25 03:03:51;;;;;;;34.45;4.47;;;8.80;99.90;;;;;;4989855;28;20101;-65
2022/11/25 03:06:18;;;;;;;37.78;3.72;;;8.80;99.90;;;;;;4990717;28;20050;-64
2022/11/25 03:08:44;;;;;;;33.55;5.60;;;8.80;99.90;;;;;;4990851;28;20054;-65
2022/11/25 03:11:11;;;;;;;26.95;4.22;;;8.80;99.90;;;;;;4989797;28;20050;-65
2022/11/25 03:13:38;;;;;;;25.98;4.65;;;8.80;99.90;;;;;;4990715;28;20073;-65
2022/11/25 03:16:05;;;;;;;23.08;4.43;;;8.80;99.90;;;;;;4989042;28;20405;-65
2022/11/25 03:18:32;;;;;;;24.77;3.15;;;8.70;99.90;;;;;;4990800;28;20070;-65
2022/11/25 03:20:59;;;;;;;16.73;3.38;;;8.70;99.90;;;;;;4990362;28;20395;-65
2022/11/25 03:23:25;;;;;;;27.10;3.33;;;8.60;99.90;;;;;;4990424;28;20057;-64
2022/11/25 03:25:53;;;;;;;28.10;4.63;;;8.60;99.90;;;;;;4990418;28;20050;-64
2022/11/25 03:28:20;;;;;;;26.70;6.25;;;8.60;99.90;;;;;;4989515;28;20043;-65
2022/11/25 03:30:46;;;;;;;30.02;4.20;;;8.60;99.90;;;;;;4990225;28;20561;-64
2022/11/25 03:33:13;;;;;;;27.98;4.28;;;8.60;99.90;;;;;;4980003;28;20050;-64
2022/11/25 03:35:40;;;;;;;21.00;3.67;;;8.60;99.90;;;;;;4989691;28;20050;-63
2022/11/25 03:38:06;;;;;;;15.80;4.88;;;8.60;99.90;;;;;;4991047;28;20042;-63
2022/11/25 03:40:33;;;;;;;20.95;4.35;;;8.60;99.90;;;;;;4992262;28;20057;-64
2022/11/25 03:43:00;;;;;;;27.77;4.50;;;8.70;99.90;;;;;;4990587;28;20046;-63
2022/11/25 03:45:27;;;;;;;26.58;3.95;;;8.70;99.90;;;;;;4990061;28;20145;-64
2022/11/25 03:47:53;;;;;;;24.13;3.92;;;8.80;99.90;;;;;;4990037;28;20541;-64
2022/11/25 03:50:20;;;;;;;26.70;3.95;;;8.70;99.90;;;;;;4972731;28;20046;-63
2022/11/25 03:52:47;;;;;;;18.80;4.43;;;8.70;99.90;;;;;;4988771;28;20249;-64
2022/11/25 03:55:14;;;;;;;24.95;4.95;;;8.70;99.90;;;;;;4990189;28;20488;-63
2022/11/25 03:57:41;;;;;;;20.88;4.03;;;8.70;99.90;;;;;;4989819;28;20060;-64
2022/11/25 04:00:08;;;;;;;27.25;6.30;;;8.70;99.90;;;;;;4989475;28;20623;-63
2022/11/25 04:02:35;;;;;;;30.50;4.57;;;8.70;99.90;;;;;;4984161;28;20129;-64
2022/11/25 04:05:02;;;;;;;30.30;3.95;;;8.70;99.90;;;;;;4971247;28;20046;-64
2022/11/25 04:07:28;;;;;;;29.92;3.97;;;8.60;99.90;;;;;;4979472;28;20064;-65
2022/11/25 04:09:55;;;;;;;19.80;3.80;;;8.60;99.90;;;;;;4989631;28;20156;-63
2022/11/25 04:15:08;;;;;;;22.38;3.65;;;8.60;99.90;;;;;;4989535;28;20053;-64
2022/11/25 04:17:34;;;;;;;27.52;4.00;;;8.60;99.90;;;;;;4989395;28;20061;-64
2022/11/25 04:20:01;;;;;;;23.23;3.40;;;8.60;99.90;;;;;;4989800;28;20153;-64
2022/11/25 04:22:28;;;;;;;19.67;3.42;;;8.60;99.90;;;;;;4989231;28;20049;-64
2022/11/25 04:24:55;;;;;;;25.92;4.20;;;8.60;99.90;;;;;;4989380;28;20134;-64
2022/11/25 04:27:21;;;;;;;34.35;4.65;;;8.60;99.90;;;;;;4988251;28;20058;-64
2022/11/25 04:29:48;;;;;;;24.90;5.28;;;8.60;99.90;;;;;;4988963;28;20066;-64
2022/11/25 04:32:15;;;;;;;17.88;4.25;;;8.50;99.90;;;;;;4989797;28;20054;-64
2022/11/25 04:34:41;;;;;;;26.52;5.03;;;8.50;99.90;;;;;;4989093;28;20046;-64
2022/11/25 04:37:08;;;;;;;14.85;2.72;;;8.50;99.90;;;;;;4989410;28;20049;-64
2022/11/25 04:39:35;;;;;;;20.67;3.38;;;8.50;99.90;;;;;;4987786;28;20130;-64
2022/11/25 04:44:47;;;;;;;26.20;3.58;;;8.50;99.90;;;;;;4989060;28;20046;-63
2022/11/25 04:47:33;;;;;;;21.73;3.30;;;8.50;99.90;;;;;;4973582;28;20108;-63
2022/11/25 04:50:01;;;;;;;20.33;3.85;;;8.50;99.90;;;;;;4986307;28;20046;-64
2022/11/25 04:52:27;;;;;;;16.85;3.13;;;8.50;99.90;;;;;;4971064;28;20054;-63
2022/11/25 04:54:54;;;;;;;33.88;8.98;;;8.50;99.90;;;;;;4988691;28;20051;-64
2022/11/25 04:57:21;;;;;;;17.70;2.75;;;8.50;99.90;;;;;;4987920;28;20058;-64
2022/11/25 04:59:47;;;;;;;22.00;3.20;;;8.50;99.90;;;;;;4988893;28;20050;-64
2022/11/25 05:02:16;;;;;;;27.27;3.65;;;8.40;99.90;;;;;;4989582;28;20046;-64
2022/11/25 05:04:44;;;;;;;21.25;4.28;;;8.40;99.90;;;;;;4987568;28;20046;-63
2022/11/25 05:07:11;;;;;;;20.50;3.72;;;8.40;99.90;;;;;;4987597;28;20058;-65
2022/11/25 05:09:38;;;;;;;22.90;3.75;;;8.50;99.90;;;;;;4987531;28;20061;-64
2022/11/25 05:12:05;;;;;;;19.85;2.92;;;8.50;99.90;;;;;;4989494;28;20401;-65
2022/11/25 05:14:34;;;;;;;21.55;4.47;;;8.50;99.90;;;;;;4992296;28;20402;-65
2022/11/25 05:17:02;;;;;;;23.77;4.63;;;8.40;99.90;;;;;;4991690;28;20085;-65
2022/11/25 05:19:29;;;;;;;30.92;5.72;;;8.40;99.90;;;;;;4992411;28;20043;-65
2022/11/25 05:21:56;;;;;;;19.52;3.42;;;8.40;99.90;;;;;;4992542;28;20088;-65
2022/11/25 05:24:26;;;;;;;23.52;3.38;;;8.40;99.90;;;;;;4992777;28;20052;-64
2022/11/25 05:26:53;;;;;;;26.58;6.18;;;8.40;99.90;;;;;;4991614;28;20513;-65
2022/11/25 05:29:19;;;;;;;22.88;4.18;;;8.30;99.90;;;;;;4991225;28;20051;-64
2022/11/25 05:31:46;;;;;;;24.80;4.05;;;8.40;99.90;;;;;;4991241;28;20570;-65
2022/11/25 05:34:13;;;;;;;25.63;4.75;;;8.30;99.90;;;;;;4991933;28;20077;-65
2022/11/25 05:36:40;;;;;;;21.65;4.20;;;8.30;99.90;;;;;;4992427;28;20142;-65
2022/11/25 05:39:06;;;;;;;19.10;4.13;;;8.30;99.90;;;;;;4991925;28;20047;-65
2022/11/25 05:41:33;;;;;;;19.63;3.90;;;8.30;99.90;;;;;;4992154;28;20057;-65
2022/11/25 05:44:00;;;;;;;28.20;6.43;;;8.40;99.90;;;;;;4991517;28;20052;-64
2022/11/25 05:46:27;;;;;;;25.45;3.33;;;8.50;99.90;;;;;;4990332;28;20054;-65
2022/11/25 05:48:54;;;;;;;26.70;3.90;;;8.40;99.90;;;;;;4992131;28;20141;-64
2022/11/25 05:51:21;;;;;;;24.85;4.68;;;8.60;99.90;;;;;;4992013;28;20054;-65
2022/11/25 05:53:48;;;;;;;22.27;2.67;;;8.60;99.90;;;;;;4991104;28;20054;-64
2022/11/25 05:56:15;;;;;;;29.92;3.45;;;8.60;99.90;;;;;;4990509;28;20520;-64
2022/11/25 05:58:41;;;;;;;18.63;3.50;;;8.70;99.90;;;;;;4991893;28;20057;-64
2022/11/25 06:01:09;;;;;;;18.42;3.17;;;8.60;99.90;;;;;;4991748;28;20053;-64
2022/11/25 06:03:36;;;;;;;23.80;3.72;;;8.70;99.90;;;;;;4992189;28;20046;-64
2022/11/25 06:06:04;;;;;;;23.77;3.88;;;8.60;99.90;;;;;;4993930;28;20050;-64
2022/11/25 06:08:30;;;;;;;34.92;3.85;;;8.60;99.90;;;;;;4995885;28;20060;-64
2022/11/25 06:10:57;;;;;;;22.05;3.53;;;8.60;99.90;;;;;;4978484;28;20444;-65
2022/11/25 06:13:24;;;;;;;17.77;3.63;;;8.60;99.90;;;;;;4995976;28;20050;-65
2022/11/25 06:15:51;;;;;;;19.10;3.10;;;8.60;99.90;;;;;;4993851;28;20057;-64
2022/11/25 06:18:18;;;;;;;16.67;4.05;;;8.60;99.90;;;;;;4990387;28;20046;-64
2022/11/25 06:20:45;;;;;;;22.25;2.65;;;8.60;99.90;;;;;;4995236;28;20485;-64
2022/11/25 06:23:11;;;;;;;27.05;3.65;;;8.50;99.90;;;;;;4993805;28;20046;-64
2022/11/25 06:25:38;;;;;;;18.23;5.28;;;8.50;99.90;;;;;;4992013;28;20217;-64
2022/11/25 06:28:05;;;;;;;25.00;4.38;;;8.50;99.90;;;;;;4993919;28;20065;-64
2022/11/25 06:30:39;;;;;;;18.38;2.92;;;8.50;99.90;;;;;;4993434;28;20053;-64
2022/11/25 06:33:06;;;;;;;13.85;3.45;;;8.50;99.90;;;;;;4990661;28;20066;-64
2022/11/25 06:35:33;;;;;;;24.92;3.03;;;8.50;99.90;;;;;;4988620;28;20060;-64
2022/11/25 06:38:00;;;;;;;18.95;2.97;;;8.50;99.90;;;;;;4644289;28;10000192;-65
2022/11/25 06:40:26;;;;;;;22.00;4.00;;;8.50;99.90;;;;;;4987538;28;20061;-64
2022/11/25 06:42:53;;;;;;;21.23;2.75;;;8.50;99.90;;;;;;4987647;28;20043;-65
2022/11/25 06:45:20;;;;;;;26.35;2.55;;;8.40;99.90;;;;;;4971004;28;20486;-64
2022/11/25 06:47:47;;;;;;;21.77;3.90;;;8.50;99.90;;;;;;4988453;28;20160;-64
2022/11/25 06:50:13;;;;;;;19.98;4.43;;;8.50;99.90;;;;;;4989508;28;20057;-64
2022/11/25 06:52:40;;;;;;;13.82;3.13;;;8.50;99.90;;;;;;4989862;28;20054;-64
2022/11/25 06:55:08;;;;;;;23.83;3.53;;;8.40;99.90;;;;;;4989628;28;20058;-64
2022/11/25 06:57:34;;;;;;;17.17;2.85;;;8.50;99.90;;;;;;4987214;28;20126;-65
2022/11/25 07:00:01;;;;;;;18.40;3.38;;;8.50;99.90;;;;;;4986511;28;20057;-64
2022/11/25 07:02:28;;;;;;;23.13;2.75;;;8.40;99.90;;;;;;4989688;28;20061;-64
2022/11/25 07:05:01;;;;;;;31.10;5.50;;;8.40;99.90;;;;;;4990404;28;20109;-64
2022/11/25 07:07:28;;;;;;;15.55;3.30;;;8.40;99.90;;;;;;4990724;28;20060;-65
2022/11/25 07:09:55;;;;;;;20.20;3.40;;;8.40;99.90;;;;;;4988657;28;20050;-64
2022/11/25 07:12:22;;;;;;;24.83;3.97;;;8.40;99.90;;;;;;4986500;28;20538;-65
2022/11/25 07:14:51;;;;;;;22.60;3.17;;;8.40;99.90;;;;;;4987372;28;20052;-64
2022/11/25 07:17:18;;;;;;;18.15;3.13;;;8.30;99.90;;;;;;4987597;28;20053;-65
2022/11/25 07:19:45;;;;;;;24.90;3.03;;;8.30;99.90;;;;;;4986075;28;20110;-64
2022/11/25 07:22:11;;;;;;;30.45;4.55;;;8.40;99.90;;;;;;4970324;28;20727;-65
2022/11/25 07:24:38;;;;;;;20.98;3.45;;;8.30;99.90;;;;;;4985296;28;20133;-65
2022/11/25 07:27:05;;;;;;;22.33;3.08;;;8.30;99.90;;;;;;4985902;28;20420;-64
2022/11/25 07:29:34;;;;;;;19.58;3.95;;;8.30;99.90;;;;;;4987044;28;20054;-64
2022/11/25 07:32:20;;;;;;;20.05;2.42;;;8.30;99.90;;;;;;4986661;28;20493;-65
2022/11/25 07:34:50;;;;;;;15.77;3.88;;;8.30;99.90;;;;;;4984978;28;20108;-64
2022/11/25 07:37:18;;;;;;;20.00;2.75;;;8.30;99.90;;;;;;4981975;28;20120;-63
2022/11/25 07:39:45;;;;;;;16.92;4.50;;;8.30;99.90;;;;;;4978047;28;20054;-64
2022/11/25 07:42:11;;;;;;;18.98;2.95;;;8.30;99.90;;;;;;4987308;28;20051;-64
2022/11/25 07:44:38;;;;;;;18.35;3.33;;;8.30;99.90;;;;;;4986353;28;20544;-64
2022/11/25 07:47:05;;;;;;;18.33;3.80;;;8.30;99.90;;;;;;4984994;28;20061;-63
2022/11/25 07:49:31;;;;;;;26.35;3.45;;;8.30;99.90;;;;;;4985395;28;20137;-63
2022/11/25 07:51:59;;;;;;;15.88;2.47;;;8.30;99.90;;;;;;4985501;28;20062;-65
2022/11/25 07:54:26;;;;;;;22.90;4.68;;;8.30;99.90;;;;;;4988238;28;20046;-64
2022/11/25 07:56:53;;;;;;;18.85;3.05;;;8.30;99.90;;;;;;4972593;28;20113;-65
2022/11/25 07:59:20;;;;;;;16.52;2.97;;;8.30;99.90;;;;;;4989900;28;20078;-65
2022/11/25 08:01:51;;;;;;;13.05;2.50;;;8.30;99.90;;;;;;4988899;28;20425;-65
2022/11/25 08:04:18;;;;;;;33.40;4.03;;;8.30;99.90;;;;;;4987833;28;20129;-64
2022/11/25 08:06:48;;;;;;;18.42;3.42;;;8.20;99.90;;;;;;4988057;28;20142;-64
2022/11/25 08:09:18;;;;;;;20.50;3.15;;;8.20;99.90;;;;;;4987831;28;20100;-66
2022/11/25 08:11:45;;;;;;;23.98;3.83;;;8.20;99.90;;;;;;4987386;28;20086;-66
2022/11/25 08:14:12;;;;;;;18.58;3.83;;;8.20;99.90;;;;;;4987629;28;20046;-65
2022/11/25 08:16:38;;;;;;;16.33;2.83;;;8.20;99.90;;;;;;4986772;28;20124;-63
2022/11/25 08:19:07;;;;;;;17.20;3.10;;;8.20;99.90;;;;;;4990931;28;20050;-64
2022/11/25 08:21:33;;;;;;;17.55;3.03;;;8.20;99.90;;;;;;4988963;28;20042;-64
2022/11/25 08:24:01;;;;;;;16.15;2.38;;;8.30;99.90;;;;;;4988569;28;20072;-63
2022/11/25 08:26:31;;;;;;;20.92;3.40;;;8.30;99.90;;;;;;4989442;28;20112;-62
2022/11/25 08:28:58;;;;;;;19.65;3.92;;;8.30;99.90;;;;;;4989680;28;20172;-64
2022/11/25 08:31:30;;;;;;;27.25;3.33;;;8.30;99.90;;;;;;4986047;28;20060;-64
2022/11/25 08:33:57;;;;;;;14.57;3.85;;;8.30;99.90;;;;;;4991968;28;20043;-64
2022/11/25 08:36:24;;;;;;;15.00;2.90;;;8.30;99.90;;;;;;4993893;28;20054;-64
2022/11/25 08:38:52;;;;;;;15.57;3.13;;;8.30;99.90;;;;;;4992779;28;20105;-64
2022/11/25 08:41:24;;;;;;;24.88;4.15;;;8.30;99.90;;;;;;4992821;28;20052;-64
2022/11/25 08:43:51;;;;;;;15.00;2.58;;;8.40;99.90;;;;;;4993151;28;20125;-64
2022/11/25 08:46:21;;;;;;;13.40;2.50;;;8.40;99.90;;;;;;4993572;28;20159;-64
2022/11/25 08:48:48;;;;;;;17.85;2.55;;;8.40;99.90;;;;;;4995864;28;20109;-64
2022/11/25 08:51:19;;;;;;;19.10;2.75;;;8.50;99.90;;;;;;4995730;28;20074;-64
2022/11/25 08:53:46;;;;;;;18.83;2.45;;;8.50;99.90;;;;;;4992871;28;20043;-63
2022/11/25 08:56:13;;;;;;;19.25;2.95;;;8.50;99.90;;;;;;5019157;28;20050;-63
2022/11/25 08:58:39;;;;;;;17.48;2.83;;;8.50;99.90;;;;;;4995868;28;20091;-63
2022/11/25 09:01:06;;;;;;;17.85;2.65;;;8.50;99.90;;;;;;4995448;28;20054;-63
2022/11/25 09:03:35;;;;;;;9.95;2.92;;;8.60;99.90;;;;;;4997097;28;20578;-63
2022/11/25 09:06:01;;;;;;;16.75;4.70;;;8.60;99.90;;;;;;4994821;28;20046;-63
2022/11/25 09:08:30;;;;;;;14.25;3.00;;;8.60;99.90;;;;;;4996882;28;20561;-63
2022/11/25 09:10:57;;;;;;;21.55;2.83;;;8.60;99.90;;;;;;4996392;28;20112;-63
2022/11/25 09:13:24;;;;;;;18.02;2.92;;;8.60;99.90;;;;;;4997582;28;20121;-63
2022/11/25 09:15:51;;;;;;;17.75;4.18;;;8.70;99.90;;;;;;4997990;28;20140;-63
2022/11/25 09:18:19;;;;;;;10.68;2.03;;;8.70;99.90;;;;;;4998567;28;20062;-62
2022/11/25 09:20:46;;;;;;;12.82;3.67;;;8.70;99.90;;;;;;4999220;28;20042;-63
2022/11/25 09:23:13;;;;;;;12.77;3.55;;;8.80;99.90;;;;;;4999192;28;20046;-62
2022/11/25 09:25:40;;;;;;;19.25;3.38;;;8.80;99.90;;;;;;4999992;28;20490;-62
2022/11/25 09:28:08;;;;;;;19.38;5.22;;;8.80;99.90;;;;;;4998393;28;20057;-61
2022/11/25 09:30:36;;;;;;;20.00;4.80;;;8.80;99.90;;;;;;4967017;28;20085;-62
2022/11/25 09:33:03;;;;;;;18.15;2.67;;;8.80;99.90;;;;;;4999031;28;20052;-63
2022/11/25 09:35:29;;;;;;;22.15;4.07;;;8.80;99.90;;;;;;4999567;28;20130;-62
2022/11/25 09:37:56;;;;;;;16.85;3.42;;;8.90;99.90;;;;;;5000887;28;20042;-62
2022/11/25 09:40:53;;;;;;;19.40;3.28;;;8.90;99.90;;;;;;5000581;28;20052;-63
2022/11/25 09:46:46;;;;;;;20.17;2.88;;;9.00;99.90;;;;;;5000448;28;20086;-64
2022/11/25 09:50:02;;;;;;;7.90;1.75;;;9.00;99.90;;;;;;5000678;28;20038;-62
2022/11/25 09:52:51;;;;;;;13.85;3.47;;;9.00;99.90;;;;;;4948143;28;20110;-63
2022/11/25 09:55:23;;;;;;;11.38;2.42;;;9.10;99.90;;;;;;4652476;28;10000560;-63
2022/11/25 09:58:27;;;;;;;17.73;2.35;;;9.10;99.90;;;;;;4982131;28;20074;-63
2022/11/25 10:00:54;;;;;;;18.98;3.42;;;9.20;99.90;;;;;;4998869;28;20232;-63
2022/11/25 10:03:43;;;;;;;20.00;3.65;;;9.20;99.90;;;;;;4966467;28;20309;-63
2022/11/25 10:06:23;;;;;;;16.30;3.42;;;9.20;99.90;;;;;;4998132;28;20057;-64
2022/11/25 10:08:52;;;;;;;12.88;2.45;;;9.30;99.90;;;;;;4999241;28;20130;-63
2022/11/25 10:11:50;;;;;;;13.23;2.58;;;9.40;99.90;;;;;;5001545;28;20057;-63
2022/11/25 10:14:38;;;;;;;18.98;2.47;;;9.40;99.90;;;;;;5000372;28;20062;-63
2022/11/25 10:17:08;;;;;;;14.65;2.95;;;9.50;99.90;;;;;;5000130;28;20065;-63
2022/11/25 10:19:42;;;;;;;17.75;2.38;;;9.50;99.90;;;;;;4999294;28;20054;-63
2022/11/25 10:22:24;;;;;;;13.57;2.60;;;9.50;99.90;;;;;;4997983;28;20050;-64
2022/11/25 10:24:55;;;;;;;18.92;3.38;;;9.60;99.90;;;;;;4997547;28;20525;-63
2022/11/25 10:27:43;;;;;;;24.45;2.47;;;9.60;99.90;;;;;;4999759;28;20062;-63
2022/11/25 10:30:22;;;;;;;18.60;3.97;;;9.70;99.90;;;;;;4999483;28;20043;-63
2022/11/25 10:33:03;;;;;;;17.38;3.83;;;9.80;99.90;;;;;;4999166;28;20069;-63
2022/11/25 10:35:36;;;;;;;14.43;2.17;;;9.70;99.90;;;;;;4998703;28;20636;-63
2022/11/25 10:38:06;;;;;;;10.48;2.50;;;9.80;99.90;;;;;;5002210;28;20134;-63
2022/11/25 10:40:33;;;;;;;11.85;2.40;;;9.90;99.90;;;;;;5000388;28;20046;-63
2022/11/25 10:43:01;;;;;;;17.00;3.13;;;9.90;99.90;;;;;;5000340;28;20157;-63
2022/11/25 10:45:30;;;;;;;7.50;2.10;;;10.00;99.90;;;;;;4998983;28;20050;-63
2022/11/25 10:48:29;;;;;;;18.63;2.40;;;10.00;99.90;;;;;;4999820;28;20108;-63
2022/11/25 10:51:05;;;;;;;23.70;4.13;;;10.00;99.90;;;;;;4968048;28;20077;-63
2022/11/25 10:53:32;;;;;;;18.70;4.18;;;10.10;99.90;;;;;;4999599;28;20043;-63
2022/11/25 10:56:10;;;;;;;10.82;2.40;;;10.20;99.90;;;;;;4982862;28;20057;-63
2022/11/25 10:58:38;;;;;;;15.95;2.53;;;10.20;99.90;;;;;;4998542;28;20562;-63
2022/11/25 11:01:21;;;;;;;18.08;3.05;;;10.20;99.90;;;;;;4999181;28;20078;-62
2022/11/25 11:03:51;;;;;;;13.80;2.73;;;10.30;99.90;;;;;;5000780;28;20114;-62
2022/11/25 11:06:38;;;;;;;15.73;2.00;;;10.30;99.90;;;;;;4998020;28;20129;-64
2022/11/25 11:09:05;;;;;;;10.73;2.25;;;10.40;99.90;;;;;;4997999;28;20137;-64
2022/11/25 11:11:32;;;;;;;12.45;2.70;;;10.40;99.90;;;;;;4997557;28;20082;-64
2022/11/25 11:14:11;;;;;;;13.25;2.70;;;10.40;99.90;;;;;;4999870;28;20074;-63
2022/11/25 11:17:01;;;;;;;16.75;2.55;;;10.50;99.90;;;;;;4999211;28;20066;-64
2022/11/25 11:19:28;;;;;;;12.75;2.85;;;10.50;99.90;;;;;;5000108;28;20098;-64
2022/11/25 11:21:56;;;;;;;11.13;2.05;;;10.50;99.90;;;;;;4999829;28;20093;-64
2022/11/25 11:24:31;;;;;;;17.00;2.20;;;10.60;99.90;;;;;;4982384;28;20050;-63
2022/11/25 11:27:06;;;;;;;12.15;2.60;;;10.60;99.90;;;;;;5001159;28;20050;-63
2022/11/25 11:29:33;;;;;;;13.85;2.95;;;10.60;99.90;;;;;;5000723;28;20043;-63
2022/11/25 11:32:04;;;;;;;17.23;2.60;;;10.70;99.90;;;;;;4985187;28;20070;-63
2022/11/25 11:34:49;;;;;;;21.27;5.60;;;10.70;99.90;;;;;;4985526;28;20046;-64
2022/11/25 11:37:18;;;;;;;;;;;10.80;99.90;;;;;;5000799;28;20088;-65
2022/11/25 11:39:59;;;;;;;18.30;4.05;;;10.80;99.90;;;;;;5000263;28;20431;-64
2022/11/25 11:42:46;;;;;;;10.65;2.60;;;10.80;99.90;;;;;;5000845;28;20061;-64
2022/11/25 11:45:31;;;;;;;19.98;2.30;;;10.90;99.90;;;;;;4959802;28;20057;-64
2022/11/25 11:48:19;;;;;;;21.48;3.28;;;10.90;99.90;;;;;;4991832;28;20045;-64
2022/11/25 11:50:47;;;;;;;10.48;2.38;;;11.00;99.90;;;;;;4984417;28;20051;-64
2022/11/25 11:53:22;;;;;;;15.68;2.60;;;11.00;99.90;;;;;;5000229;28;20141;-64
2022/11/25 11:56:05;;;;;;;18.70;3.85;;;11.00;99.90;;;;;;5001551;28;20050;-64
2022/11/25 11:59:17;;;;;;;10.52;2.42;;;11.00;99.90;;;;;;4995795;28;20056;-62
2022/11/25 12:01:44;;;;;;;15.52;2.47;;;11.10;99.90;;;;;;4980249;28;20417;-63
2022/11/25 12:04:40;;;;;;;21.50;2.70;;;11.10;99.90;;;;;;4998153;28;20054;-64
2022/11/25 12:07:14;;;;;;;11.00;2.25;;;11.10;99.90;;;;;;4983736;28;20417;-64
2022/11/25 12:10:06;;;;;;;13.13;3.22;;;11.10;99.90;;;;;;4999495;28;20050;-64
2022/11/25 12:12:39;;;;;;;16.85;2.70;;;11.20;99.90;;;;;;4995478;28;20478;-64
2022/11/25 12:15:38;;;;;;;20.15;4.13;;;11.20;99.90;;;;;;5000257;28;20068;-63
2022/11/25 12:18:31;;;;;;;12.95;2.17;;;11.20;99.90;;;;;;5008616;28;20118;-63
2022/11/25 12:21:04;;;;;;;11.48;2.53;;;11.20;99.90;;;;;;4991229;28;20104;-63
2022/11/25 12:24:03;;;;;;;17.67;3.65;;;11.30;99.90;;;;;;4999436;28;20100;-63
2022/11/25 12:26:49;;;;;;;21.40;2.78;;;11.30;99.90;;;;;;4995019;28;20099;-63
2022/11/25 12:29:29;;;;;;;10.27;2.15;;;11.30;99.90;;;;;;5000680;28;20047;-63
2022/11/25 12:32:16;;;;;;;17.90;2.30;;;11.30;99.90;;;;;;5000320;28;20449;-62
2022/11/25 12:34:48;;;;;;;8.90;2.30;;;11.40;99.90;;;;;;4999598;28;20162;-62
2022/11/25 12:37:26;;;;;;;13.10;2.40;;;11.40;99.90;;;;;;4985095;28;20074;-63
2022/11/25 12:40:07;;;;;;;12.50;2.47;;;11.50;99.90;;;;;;4999631;28;20144;-63
2022/11/25 12:42:34;;;;;;;12.70;2.63;;;11.40;99.90;;;;;;5001524;28;20114;-63
2022/11/25 12:45:25;;;;;;;13.43;1.98;;;11.50;99.90;;;;;;5002260;28;20125;-63
2022/11/25 12:47:52;;;;;;;19.77;2.70;;;11.50;99.90;;;;;;5017352;28;20077;-63
2022/11/25 12:50:40;;;;;;;12.77;2.35;;;11.60;99.90;;;;;;5001850;28;20119;-63
2022/11/25 12:53:23;;;;;;;12.52;2.28;;;11.60;99.90;;;;;;5001101;28;20076;-64
2022/11/25 12:55:49;;;;;;;10.65;2.45;;;11.60;99.90;;;;;;5000945;28;20068;-64
2022/11/25 12:58:25;;;;;;;8.52;2.20;;;11.60;99.90;;;;;;5001618;28;20058;-64
2022/11/25 13:01:07;;;;;;;14.45;2.65;;;11.60;99.90;;;;;;5001560;28;20064;-64
2022/11/25 13:03:52;;;;;;;9.95;2.13;;;11.70;99.90;;;;;;5002591;28;20061;-63
2022/11/25 13:06:21;;;;;;;15.77;3.97;;;11.60;99.90;;;;;;5003078;28;20058;-63
2022/11/25 13:09:09;;;;;;;10.45;2.22;;;11.70;99.90;;;;;;5002078;28;20073;-62
2022/11/25 13:11:54;;;;;;;10.65;2.00;;;11.70;99.90;;;;;;5002257;28;20138;-63
2022/11/25 13:14:40;;;;;;;7.22;2.33;;;11.70;99.90;;;;;;5001938;28;20050;-63
2022/11/25 13:17:08;;;;;;;15.55;2.75;;;11.70;99.90;;;;;;5001275;28;20046;-64
2022/11/25 13:19:36;;;;;;;9.93;1.95;;;11.70;99.90;;;;;;5002645;28;20050;-63